Time;durP1;ratioP1;P1;durP2;ratioP2;P2;SDS_P1;SDS_P2;PMS_P1;PMS_P2;Temp;Humidity;BMP_temperature;BMP_pressure;BME280_temperature;BME280_humidity;BME280_pressure;Samples;Min_cycle;Max_cycle;Signal;HPM_P1;HPM_P2
2022/12/21 00:01:24;;;;;;;29.57;19.57;;;4.30;87.40;;;4.03;78.76;97900.78;5033871;28;20455;-83
2022/12/21 00:03:54;;;;;;;32.10;21.20;;;4.30;87.70;;;3.89;78.96;97905.06;5033936;28;20454;-78
2022/12/21 00:06:22;;;;;;;31.43;20.80;;;4.30;87.70;;;3.97;80.20;97918.38;5033091;28;20810;-78
2022/12/21 00:08:54;;;;;;;30.33;19.23;;;4.30;88.00;;;3.90;79.87;97893.34;5034800;28;20529;-78
2022/12/21 00:11:24;;;;;;;30.03;21.93;;;4.30;88.40;;;3.94;79.23;97909.84;5032424;28;20450;-76
2022/12/21 00:13:52;;;;;;;30.67;20.10;;;4.30;87.60;;;4.05;79.04;97903.28;5033476;28;20520;-78
2022/12/21 00:16:22;;;;;;;28.87;19.13;;;4.40;87.70;;;3.90;79.41;97892.50;5034042;28;20511;-81
2022/12/21 00:18:50;;;;;;;30.57;20.13;;;4.30;87.60;;;3.75;79.79;97889.75;5040938;28;20457;-77
2022/12/21 00:21:20;;;;;;;30.30;21.20;;;4.30;88.10;;;3.65;81.21;97877.44;5049989;28;20494;-78
2022/12/21 00:23:51;;;;;;;36.50;22.70;;;4.20;89.20;;;3.65;81.08;97880.09;5045184;28;20446;-80
2022/12/21 00:26:21;;;;;;;29.20;20.60;;;4.20;89.70;;;3.78;81.52;97886.72;5035427;28;20462;-77
2022/12/21 00:28:49;;;;;;;31.00;21.47;;;4.20;90.00;;;3.85;80.65;97887.69;5034727;28;20501;-79
2022/12/21 00:31:20;;;;;;;34.13;21.63;;;4.20;90.20;;;3.89;81.08;97878.31;5034018;28;20449;-79
2022/12/21 00:33:48;;;;;;;33.43;21.60;;;4.20;90.60;;;3.86;81.60;97873.31;5031663;28;20462;-80
2022/12/21 00:36:20;;;;;;;29.53;20.00;;;4.20;90.50;;;3.82;81.72;97880.03;5031952;28;20451;-80
2022/12/21 00:38:47;;;;;;;36.07;21.50;;;4.20;91.20;;;3.90;82.08;97874.66;5032535;28;20951;-80
2022/12/21 00:41:19;;;;;;;31.40;22.10;;;4.10;91.40;;;3.68;82.10;97860.22;5033032;28;20592;-79
2022/12/21 00:43:47;;;;;;;30.00;21.07;;;4.10;91.50;;;3.89;81.92;97875.66;5031938;28;20451;-78
2022/12/21 00:46:19;;;;;;;31.10;22.43;;;4.10;92.00;;;3.59;82.68;97862.13;5031696;28;20459;-79
2022/12/21 00:48:47;;;;;;;30.13;21.40;;;4.00;92.10;;;4.00;82.07;97862.88;5032476;28;20535;-79
2022/12/21 00:51:18;;;;;;;34.70;23.07;;;4.10;92.50;;;4.01;81.50;97869.88;5034032;28;20509;-81
2022/12/21 00:53:45;;;;;;;32.60;22.40;;;4.20;92.00;;;3.97;81.59;97867.56;5029821;28;21306;-80
2022/12/21 00:56:13;;;;;;;31.93;21.43;;;4.20;91.50;;;3.76;82.72;97854.81;5032368;28;20447;-80
2022/12/21 00:58:42;;;;;;;29.80;21.30;;;4.20;91.60;;;3.89;82.27;97853.41;5033292;28;20504;-78
2022/12/21 01:01:14;;;;;;;28.50;20.80;;;4.20;92.00;;;4.07;81.88;97853.97;5033872;28;20446;-78
2022/12/21 01:03:41;;;;;;;31.70;21.00;;;4.30;92.10;;;3.97;81.63;97859.53;5030238;28;20443;-79
2022/12/21 01:06:13;;;;;;;32.40;21.17;;;4.30;91.50;;;3.73;83.46;97862.38;5032422;28;20462;-80
2022/12/21 01:08:40;;;;;;;33.53;21.67;;;4.20;92.00;;;3.67;83.98;97864.72;5029684;28;21052;-78
2022/12/21 01:11:07;;;;;;;33.10;21.87;;;4.10;92.60;;;3.69;84.20;97873.41;5028759;28;20454;-78
2022/12/21 01:13:35;;;;;;;35.93;23.07;;;4.10;93.20;;;3.67;84.47;97870.06;5031969;28;20456;-80
2022/12/21 01:16:05;;;;;;;32.63;22.57;;;4.20;93.20;;;3.62;84.51;97861.75;5032282;28;20935;-80
2022/12/21 01:18:32;;;;;;;31.70;22.70;;;4.10;93.70;;;3.77;84.56;97863.69;5029545;28;20962;-80
2022/12/21 01:20:59;;;;;;;34.30;23.20;;;4.10;94.20;;;3.86;85.45;97870.63;5031102;28;21008;-79
2022/12/21 01:23:26;;;;;;;32.03;22.30;;;4.10;94.60;;;3.81;84.63;97881.03;5032543;28;20504;-79
2022/12/21 01:25:54;;;;;;;33.40;20.67;;;4.10;94.00;;;3.74;84.81;97875.56;5031980;28;20496;-81
2022/12/21 01:28:21;;;;;;;29.20;21.87;;;4.10;94.10;;;3.56;85.59;97873.13;5032722;28;20985;-78
2022/12/21 01:30:48;;;;;;;33.40;23.00;;;4.00;94.60;;;3.49;85.52;97877.50;5032384;28;20500;-79
2022/12/21 01:33:19;;;;;;;38.97;21.50;;;3.90;94.80;;;3.49;85.40;97870.34;5031334;28;20451;-80
2022/12/21 01:35:47;;;;;;;31.73;21.77;;;3.90;95.00;;;3.37;85.79;97869.06;5031646;28;20667;-81
2022/12/21 01:38:15;;;;;;;32.33;21.80;;;3.90;95.00;;;3.63;84.97;97871.44;5032173;28;20547;-79
2022/12/21 01:40:42;;;;;;;34.87;22.27;;;4.00;94.70;;;3.51;85.36;97878.16;5030521;28;21248;-79
2022/12/21 01:43:40;;;;;;;32.37;22.40;;;4.00;94.20;;;3.40;86.17;97876.72;5032256;28;20451;-77
2022/12/21 01:46:12;;;;;;;33.60;22.57;;;3.90;95.00;;;3.51;86.12;97892.38;5031040;28;20443;-79
2022/12/21 01:48:47;;;;;;;34.43;21.60;;;4.00;94.80;;;3.57;85.00;97866.81;5027304;28;20477;-80
2022/12/21 01:51:15;;;;;;;32.43;22.00;;;4.10;94.60;;;3.60;85.07;97885.16;5032253;28;20498;-80
2022/12/21 01:53:49;;;;;;;36.00;22.37;;;4.10;94.30;;;3.58;85.13;97876.47;5031841;28;20454;-79
2022/12/21 01:56:22;;;;;;;32.60;21.93;;;4.00;94.50;;;3.62;85.70;97877.78;5031594;28;20478;-79
2022/12/21 01:58:49;;;;;;;31.90;21.17;;;4.00;94.70;;;3.69;85.02;97872.59;5032075;28;20472;-76
2022/12/21 02:01:17;;;;;;;33.40;21.10;;;4.10;94.40;;;3.74;84.81;97872.06;5030166;28;21051;-80
2022/12/21 02:03:51;;;;;;;32.60;21.63;;;4.10;94.30;;;3.61;85.54;97864.59;5029952;28;20473;-79
2022/12/21 02:06:25;;;;;;;32.70;21.80;;;4.10;94.40;;;3.69;85.24;97873.41;5031390;28;20510;-77
2022/12/21 02:08:53;;;;;;;35.37;22.90;;;4.10;94.20;;;3.59;86.15;97870.13;5028715;28;20504;-79
2022/12/21 02:11:22;;;;;;;32.00;22.03;;;4.10;94.70;;;3.68;86.51;97869.06;5030977;28;20538;-78
2022/12/21 02:13:49;;;;;;;35.83;22.20;;;4.10;94.80;;;3.64;86.70;97866.91;5031511;28;20516;-79
2022/12/21 02:16:24;;;;;;;33.13;22.03;;;4.10;95.10;;;3.67;86.01;97861.25;5028585;28;20469;-78
2022/12/21 02:19:39;;;;;;;33.73;21.90;;;4.10;95.40;;;3.81;86.41;97871.19;5041925;28;20477;-80
2022/12/21 02:22:09;;;;;;;33.63;22.93;;;4.20;95.50;;;3.86;86.06;97865.28;5032438;28;20993;-77
2022/12/21 02:25:39;;;;;;;33.53;22.93;;;4.20;95.50;;;3.72;86.81;97850.03;5032765;28;20554;-80
2022/12/21 02:28:39;;;;;;;35.90;20.90;;;4.20;95.40;;;3.67;86.42;97847.88;5011722;28;20475;-79
2022/12/21 02:31:22;;;;;;;35.63;22.20;;;4.20;96.10;;;3.83;86.97;97854.94;5011651;28;20455;-80
2022/12/21 02:34:06;;;;;;;33.87;21.20;;;4.20;95.90;;;3.32;85.94;97791.28;5029631;28;20465;-80
2022/12/21 02:36:44;;;;;;;30.37;20.50;;;4.30;96.00;;;3.66;87.07;97862.25;5031164;28;20454;-76
2022/12/21 02:39:19;;;;;;;26.83;20.50;;;4.20;96.20;;;3.72;87.31;97855.38;5031287;28;20938;-80
2022/12/21 02:41:57;;;;;;;30.87;20.37;;;4.20;96.10;;;3.63;87.61;97835.84;5031107;28;20555;-80
2022/12/21 02:44:44;;;;;;;32.63;21.37;;;4.20;96.10;;;3.72;87.82;97858.06;5029591;28;20441;-80
2022/12/21 02:47:19;;;;;;;31.97;21.70;;;4.20;97.00;;;3.73;87.70;97862.38;5028620;28;20452;-79
2022/12/21 02:49:51;;;;;;;35.00;22.90;;;4.20;96.50;;;3.49;88.17;97832.09;5031283;28;20488;-78
2022/12/21 02:52:27;;;;;;;34.17;22.13;;;4.20;97.50;;;3.83;88.61;97846.94;5034890;28;20951;-79
2022/12/21 02:54:59;;;;;;;37.40;22.37;;;4.20;98.80;;;3.80;88.11;97852.63;5044730;28;20516;-76
2022/12/21 02:57:34;;;;;;;36.53;23.97;;;4.20;98.80;;;3.65;88.96;97813.31;5046278;28;20468;-77
2022/12/21 03:00:05;;;;;;;32.60;22.83;;;4.20;99.60;;;3.79;88.77;97829.59;5033767;28;21030;-78
2022/12/21 03:06:15;;;;;;;29.73;22.07;;;4.20;99.70;;;3.90;88.31;97836.38;5003377;28;20469;-79
2022/12/21 03:08:57;;;;;;;30.83;21.60;;;4.30;99.90;;;3.65;89.70;97815.97;5029452;28;21054;-80
2022/12/21 03:11:35;;;;;;;31.20;21.40;;;4.20;99.90;;;3.71;90.03;97809.09;5028515;28;20512;-80
2022/12/21 03:14:09;;;;;;;29.97;21.60;;;4.20;99.90;;;3.72;90.49;97815.28;5030464;28;20457;-77
2022/12/21 03:16:48;;;;;;;33.83;23.77;;;4.20;99.90;;;3.93;89.81;97814.63;5028699;28;20472;-77
2022/12/21 03:19:24;;;;;;;30.63;23.17;;;4.20;99.90;;;3.85;90.10;97817.38;5023933;28;20460;-79
2022/12/21 03:21:57;;;;;;;33.63;22.17;;;4.30;99.90;;;3.76;90.32;97803.22;5029521;28;20849;-76
2022/12/21 03:24:31;;;;;;;33.37;23.50;;;4.20;99.90;;;3.81;90.91;97811.53;5029540;28;20457;-74
2022/12/21 03:27:06;;;;;;;37.30;24.20;;;4.20;99.90;;;3.89;90.35;97818.66;5045069;28;20446;-77
2022/12/21 03:29:39;;;;;;;34.47;21.97;;;4.30;99.90;;;3.93;90.69;97811.94;5030770;28;20942;-80
2022/12/21 03:32:14;;;;;;;36.27;24.73;;;4.30;99.90;;;3.97;90.83;97811.41;5028247;28;20466;-79
2022/12/21 03:34:48;;;;;;;33.20;22.20;;;4.30;99.90;;;3.83;91.28;97810.38;5032144;28;20862;-77
2022/12/21 03:37:19;;;;;;;31.73;23.00;;;4.30;99.90;;;3.75;90.74;97762.28;5035108;28;20511;-77
2022/12/21 03:39:53;;;;;;;33.63;23.20;;;4.40;99.90;;;3.88;91.02;97784.94;5033393;28;20520;-79
2022/12/21 03:42:25;;;;;;;33.63;22.80;;;4.40;99.90;;;4.04;90.83;97795.50;5025405;28;20465;-79
2022/12/21 03:44:56;;;;;;;31.17;21.87;;;4.40;99.90;;;4.10;91.31;97799.31;5034022;28;20458;-76
2022/12/21 03:47:30;;;;;;;34.63;22.13;;;4.50;99.90;;;4.05;91.41;97788.31;5031825;28;20458;-77
2022/12/21 03:50:02;;;;;;;36.40;22.90;;;4.50;99.90;;;4.02;91.79;97794.84;5034042;28;20534;-79
2022/12/21 03:52:35;;;;;;;33.73;23.23;;;4.50;99.90;;;4.12;92.27;97783.91;5032630;28;20446;-80
2022/12/21 03:55:09;;;;;;;33.20;24.83;;;4.50;99.90;;;4.07;92.20;97779.09;5033205;28;20458;-78
2022/12/21 03:57:37;;;;;;;38.13;23.37;;;4.50;99.90;;;4.20;91.32;97788.34;5033892;28;21143;-80
2022/12/21 04:00:07;;;;;;;32.60;24.63;;;4.60;99.90;;;4.30;90.92;97778.25;5034365;28;20515;-81
2022/12/21 04:02:42;;;;;;;33.60;23.40;;;4.60;99.90;;;4.19;91.41;97786.69;5032654;28;20543;-78
2022/12/21 04:05:16;;;;;;;35.10;23.90;;;4.70;99.90;;;4.29;91.77;97773.06;5024626;28;20446;-77
2022/12/21 04:07:46;;;;;;;34.17;23.80;;;4.70;99.90;;;4.37;91.29;97773.81;5034212;28;20469;-80
2022/12/21 04:10:17;;;;;;;31.23;22.37;;;4.70;99.90;;;4.41;91.26;97779.66;5032054;28;20583;-80
2022/12/21 04:12:46;;;;;;;31.67;22.17;;;4.80;99.90;;;4.53;90.97;97767.50;5031848;28;20442;-80
2022/12/21 04:15:17;;;;;;;30.03;22.83;;;4.90;99.90;;;4.62;90.60;97759.38;5032043;28;20534;-79
2022/12/21 04:17:48;;;;;;;34.90;21.83;;;5.00;99.90;;;4.60;90.97;97750.69;5029331;28;20461;-81
2022/12/21 04:20:18;;;;;;;30.80;21.90;;;5.00;99.90;;;4.74;89.93;97779.31;5033635;28;20474;-79
2022/12/21 04:28:22;;;;;;;27.93;21.07;;;5.10;99.90;;;5.00;89.99;97767.31;5033630;28;21013;-78
2022/12/21 04:30:50;;;;;;;30.30;20.20;;;5.20;99.90;;;5.00;89.70;97772.69;5033632;28;20490;-78
2022/12/21 04:33:20;;;;;;;31.40;21.63;;;5.20;99.90;;;5.02;89.14;97773.31;5032191;28;20458;-80
2022/12/21 04:38:36;;;;;;;25.90;19.63;;;5.30;99.90;;;4.92;89.82;97765.56;5033438;28;21149;-79
2022/12/21 04:41:03;;;;;;;26.00;20.50;;;5.30;99.90;;;4.66;90.18;97723.22;5031967;28;20496;-80
2022/12/21 04:43:30;;;;;;;28.20;21.10;;;5.30;99.90;;;5.04;90.24;97771.28;5033379;28;20450;-79
2022/12/21 04:46:02;;;;;;;27.40;20.07;;;5.30;99.90;;;5.04;89.94;97757.88;5028242;28;20540;-77
2022/12/21 04:48:29;;;;;;;28.73;20.47;;;5.30;99.90;;;4.94;90.22;97758.19;5031759;28;20465;-79
2022/12/21 04:51:04;;;;;;;24.67;19.07;;;5.30;99.90;;;5.16;90.04;97760.94;5033142;28;20914;-78
2022/12/21 04:53:31;;;;;;;30.30;19.70;;;5.40;99.90;;;5.03;89.93;97766.94;5031422;28;20453;-80
2022/12/21 04:55:58;;;;;;;27.00;20.37;;;5.50;99.90;;;4.93;90.90;97759.19;5030064;28;20459;-77
2022/12/21 04:58:26;;;;;;;32.67;21.63;;;5.40;99.90;;;5.12;90.76;97753.47;5032873;28;20462;-79
2022/12/21 05:00:53;;;;;;;26.67;21.03;;;5.40;99.90;;;5.07;90.87;97751.34;5030856;28;20459;-78
2022/12/21 05:03:20;;;;;;;26.07;19.63;;;5.50;99.90;;;5.01;91.10;97758.28;5032800;28;20486;-79
2022/12/21 05:05:48;;;;;;;24.63;19.10;;;5.50;99.90;;;4.94;91.82;97752.81;5032506;28;20977;-80
2022/12/21 05:08:16;;;;;;;24.83;19.10;;;5.40;99.90;;;5.15;91.90;97751.22;5031762;28;20475;-78
2022/12/21 05:10:43;;;;;;;26.20;20.17;;;5.50;99.90;;;5.21;91.91;97746.97;5030450;28;20545;-79
2022/12/21 05:13:11;;;;;;;26.10;19.90;;;5.50;99.90;;;5.20;91.88;97739.94;5032168;28;20451;-79
2022/12/21 05:15:38;;;;;;;25.37;19.37;;;5.50;99.90;;;5.24;91.20;97741.25;5031363;28;20516;-79
2022/12/21 05:18:06;;;;;;;26.73;20.43;;;5.50;99.90;;;5.23;91.42;97742.25;5032737;28;20545;-78
2022/12/21 05:20:33;;;;;;;25.80;20.40;;;5.50;99.90;;;5.18;91.75;97742.00;5032807;28;20453;-78
2022/12/21 05:23:00;;;;;;;29.07;20.00;;;5.50;99.90;;;5.27;91.55;97740.88;5032623;28;21044;-78
2022/12/21 05:25:29;;;;;;;28.23;19.47;;;5.50;99.90;;;5.19;92.44;97751.69;5037658;28;20539;-79
2022/12/21 05:27:56;;;;;;;25.50;20.57;;;5.50;99.90;;;5.21;92.58;97744.28;5043348;28;20454;-77
2022/12/21 05:30:23;;;;;;;27.77;20.20;;;5.50;99.90;;;5.44;90.99;97746.81;5044846;28;20490;-77
2022/12/21 05:32:50;;;;;;;26.00;20.50;;;5.60;99.90;;;5.39;91.32;97744.72;5035341;28;20447;-78
2022/12/21 05:35:17;;;;;;;22.83;19.20;;;5.70;99.90;;;5.36;91.46;97750.44;5032539;28;20500;-78
2022/12/21 05:37:44;;;;;;;26.67;18.63;;;5.70;99.90;;;5.42;91.67;97748.06;5032412;28;20493;-78
2022/12/21 05:40:12;;;;;;;24.00;18.93;;;5.60;99.90;;;5.42;91.97;97753.41;5032205;28;20444;-79
2022/12/21 05:42:41;;;;;;;22.87;17.90;;;5.70;99.90;;;5.56;91.00;97754.38;5030589;28;20466;-79
2022/12/21 05:45:09;;;;;;;23.23;19.40;;;5.80;99.90;;;5.53;91.25;97750.22;5030961;28;20485;-79
2022/12/21 05:47:36;;;;;;;22.80;18.27;;;5.80;99.90;;;5.59;91.43;97754.84;5030667;28;21043;-78
2022/12/21 05:50:04;;;;;;;30.10;27.13;;;5.80;99.90;;;5.46;91.88;97754.69;5038785;28;20494;-79
2022/12/21 05:52:31;;;;;;;24.83;19.47;;;5.80;99.90;;;5.51;92.55;97753.09;5031854;28;20505;-78
2022/12/21 05:54:58;;;;;;;24.47;18.47;;;5.80;99.90;;;5.54;91.97;97757.25;5031099;28;20443;-80
2022/12/21 05:57:25;;;;;;;24.57;19.47;;;5.80;99.90;;;5.51;92.29;97757.63;5024030;28;20533;-80
2022/12/21 05:59:54;;;;;;;26.50;20.47;;;5.80;99.90;;;5.47;92.70;97767.06;5026295;28;20482;-80
2022/12/21 06:02:21;;;;;;;22.63;19.27;;;5.80;99.90;;;5.48;92.72;97764.22;5030505;28;20454;-80
2022/12/21 06:04:48;;;;;;;26.00;19.10;;;5.80;99.90;;;5.43;93.91;97765.78;5029848;28;20505;-79
2022/12/21 06:07:15;;;;;;;27.70;20.53;;;5.80;99.90;;;5.47;94.08;97764.38;5031274;28;20512;-76
2022/12/21 06:09:42;;;;;;;25.43;20.83;;;5.80;99.90;;;5.44;94.16;97767.44;5030227;28;20970;-78
2022/12/21 06:12:09;;;;;;;23.60;18.50;;;5.80;99.90;;;5.63;93.67;97757.97;5030099;28;20455;-80
2022/12/21 06:14:37;;;;;;;26.10;20.03;;;5.90;99.90;;;5.55;94.37;97753.56;5029576;28;20447;-78
2022/12/21 06:17:05;;;;;;;25.23;20.20;;;5.90;99.90;;;5.51;95.07;97749.56;5028523;28;20477;-76
2022/12/21 06:19:32;;;;;;;27.47;20.43;;;5.90;99.90;;;5.52;94.32;97753.91;5030330;28;20443;-78
2022/12/21 06:21:59;;;;;;;30.17;21.43;;;5.90;99.90;;;5.41;94.64;97739.16;5029593;28;20918;-78
2022/12/21 06:24:26;;;;;;;28.47;20.80;;;5.90;99.90;;;5.73;94.04;97749.63;5028198;28;20462;-77
2022/12/21 06:26:53;;;;;;;23.70;19.03;;;6.00;99.90;;;5.75;94.54;97760.97;5025131;28;20444;-77
2022/12/21 06:29:21;;;;;;;24.63;19.83;;;6.00;99.90;;;5.67;94.81;97762.75;5029787;28;20532;-78
2022/12/21 06:31:48;;;;;;;23.43;18.50;;;6.00;99.90;;;5.78;94.43;97757.91;5031963;28;20459;-79
2022/12/21 06:34:16;;;;;;;24.93;19.60;;;6.10;99.90;;;5.79;94.16;97764.91;5029459;28;20955;-80
2022/12/21 06:36:44;;;;;;;26.70;20.60;;;6.10;99.90;;;5.66;95.05;97755.72;5031389;28;20485;-81
2022/12/21 06:39:11;;;;;;;26.77;20.20;;;6.10;99.90;;;5.74;94.44;97753.94;5029420;28;20508;-76
2022/12/21 06:41:38;;;;;;;22.73;18.50;;;6.10;99.90;;;5.92;95.01;97759.69;5028287;28;20539;-78
2022/12/21 06:44:05;;;;;;;27.73;20.03;;;6.20;99.90;;;6.21;94.42;97751.72;5020642;28;20865;-79
2022/12/21 06:46:32;;;;;;;28.87;21.83;;;6.40;99.90;;;6.03;93.97;97750.31;5028835;28;20474;-78
2022/12/21 06:48:59;;;;;;;23.13;18.53;;;6.40;99.90;;;5.95;94.18;97753.94;5044160;28;20470;-79
2022/12/21 06:51:28;;;;;;;26.13;21.00;;;6.30;99.90;;;5.88;94.64;97755.75;5029316;28;20481;-78
2022/12/21 06:53:55;;;;;;;29.37;20.90;;;6.30;99.90;;;5.99;94.20;97758.91;5031271;28;20526;-79
2022/12/21 06:56:24;;;;;;;28.23;21.10;;;6.30;99.90;;;5.99;94.47;97759.75;5028986;28;20438;-79
2022/12/21 06:58:54;;;;;;;27.13;20.97;;;6.30;99.90;;;5.93;94.22;97768.59;5031027;28;20937;-77
2022/12/21 07:01:24;;;;;;;24.57;19.03;;;6.30;99.90;;;5.98;94.42;97760.78;5029116;28;20435;-77
2022/12/21 07:03:53;;;;;;;24.50;18.10;;;6.30;99.90;;;6.00;94.26;97755.25;5029672;28;21006;-78
2022/12/21 07:06:22;;;;;;;26.17;18.83;;;6.30;99.90;;;6.00;94.08;97765.97;5030618;28;20454;-77
2022/12/21 07:08:51;;;;;;;24.83;19.23;;;6.30;99.90;;;6.06;93.56;97768.72;5030220;28;20451;-79
2022/12/21 07:11:21;;;;;;;24.47;20.10;;;6.30;99.90;;;5.90;94.41;97758.22;5027633;28;20474;-79
2022/12/21 07:13:50;;;;;;;24.90;20.00;;;6.30;99.90;;;6.03;93.95;97773.66;5030805;28;20458;-81
2022/12/21 07:16:17;;;;;;;29.77;19.37;;;6.30;99.90;;;5.59;94.74;97711.94;5030055;28;20447;-81
2022/12/21 07:18:46;;;;;;;24.03;19.17;;;6.30;99.90;;;6.01;94.81;97771.16;5027777;28;21152;-77
2022/12/21 07:21:16;;;;;;;28.40;20.90;;;6.30;99.90;;;6.05;93.95;97780.47;5031012;28;20552;-80
2022/12/21 07:23:45;;;;;;;26.50;19.20;;;6.40;99.90;;;5.92;95.06;97775.78;5030555;28;20545;-80
2022/12/21 07:26:15;;;;;;;25.10;20.47;;;6.30;99.90;;;5.99;95.23;97775.00;5028412;28;20486;-80
2022/12/21 07:28:45;;;;;;;27.10;20.97;;;6.30;99.90;;;5.88;95.60;97779.88;5030575;28;20454;-79
2022/12/21 07:31:15;;;;;;;27.80;20.13;;;6.30;99.90;;;5.93;94.80;97788.16;5029557;28;20565;-79
2022/12/21 07:33:42;;;;;;;25.97;19.57;;;6.30;99.90;;;6.16;94.73;97787.19;5026455;28;20474;-80
2022/12/21 07:36:10;;;;;;;31.10;22.63;;;6.40;99.90;;;6.07;94.33;97788.34;5028275;28;20584;-79
2022/12/21 07:38:38;;;;;;;30.63;20.60;;;6.40;99.90;;;6.03;94.78;97790.56;5028641;28;20463;-79
2022/12/21 07:41:10;;;;;;;24.80;19.90;;;6.40;99.90;;;6.03;94.70;97785.19;5028292;28;20462;-78
2022/12/21 07:43:39;;;;;;;24.70;19.90;;;6.40;99.90;;;6.00;94.69;97779.38;5014837;28;20470;-79
2022/12/21 07:46:07;;;;;;;24.90;20.23;;;6.40;99.90;;;6.17;94.28;97783.47;5028242;28;20486;-78
2022/12/21 07:48:35;;;;;;;25.97;21.10;;;6.40;99.90;;;5.98;94.26;97778.72;5024566;28;20454;-78
2022/12/21 07:51:03;;;;;;;25.97;19.80;;;6.40;99.90;;;6.17;94.05;97780.81;5042689;28;20480;-79
2022/12/21 07:53:31;;;;;;;27.10;20.70;;;6.50;99.90;;;6.04;94.99;97789.53;5027016;28;20485;-79
2022/12/21 07:56:04;;;;;;;27.13;21.60;;;6.40;99.90;;;5.94;94.80;97773.72;5024615;28;20458;-79
2022/12/21 07:58:31;;;;;;;23.57;17.70;;;6.40;99.90;;;6.01;94.70;97784.56;5027963;28;20532;-78
2022/12/21 08:01:06;;;;;;;22.43;19.03;;;6.40;99.90;;;5.88;94.53;97738.81;5030671;28;20459;-80
2022/12/21 08:03:35;;;;;;;24.90;20.20;;;6.40;99.90;;;6.29;93.68;97793.66;5026414;28;20451;-80
2022/12/21 08:06:02;;;;;;;25.33;20.10;;;6.50;99.90;;;6.18;93.22;97795.03;5028730;28;20470;-78
2022/12/21 08:08:29;;;;;;;25.87;19.87;;;6.50;99.90;;;6.42;93.72;97790.28;5029452;28;20492;-78
2022/12/21 08:10:56;;;;;;;24.50;18.90;;;6.60;99.90;;;6.40;92.36;97786.97;5027515;28;20528;-79
2022/12/21 08:13:24;;;;;;;25.70;20.27;;;6.60;99.90;;;6.31;92.91;97787.09;5030644;28;20451;-78
2022/12/21 08:16:00;;;;;;;24.47;19.53;;;6.60;99.90;;;6.43;92.58;97790.06;5028583;28;20477;-78
2022/12/21 08:18:28;;;;;;;27.00;20.87;;;6.60;99.90;;;6.17;92.63;97782.63;5028475;28;20815;-79
2022/12/21 08:20:56;;;;;;;22.03;19.17;;;6.60;99.90;;;6.38;92.41;97800.56;5030129;28;20958;-78
2022/12/21 08:23:23;;;;;;;24.87;19.20;;;6.70;99.90;;;6.15;93.53;97801.63;5034329;28;20511;-79
2022/12/21 08:25:50;;;;;;;23.23;19.57;;;6.60;99.90;;;6.22;93.56;97797.13;5033917;28;20509;-78
2022/12/21 08:28:18;;;;;;;26.50;19.40;;;6.60;99.90;;;6.27;93.70;97801.94;5035354;28;20497;-79
2022/12/21 08:30:45;;;;;;;22.03;19.63;;;6.50;99.90;;;6.40;92.26;97803.88;5043507;28;20475;-79
2022/12/21 08:33:13;;;;;;;26.00;19.37;;;6.60;99.90;;;6.28;93.32;97798.22;5045601;28;20457;-78
2022/12/21 08:35:44;;;;;;;25.20;19.97;;;6.60;99.90;;;6.34;93.15;97796.63;5052637;28;20473;-78
2022/12/21 08:38:11;;;;;;;25.30;19.00;;;6.60;99.90;;;6.40;93.18;97801.19;5052973;28;20446;-76
2022/12/21 08:40:39;;;;;;;26.30;20.13;;;6.60;99.90;;;6.37;93.20;97798.91;5046547;28;20481;-78
2022/12/21 08:43:06;;;;;;;27.63;19.27;;;6.70;99.90;;;6.43;92.76;97798.13;5030696;28;20970;-78
2022/12/21 08:45:33;;;;;;;24.63;19.00;;;6.70;99.90;;;6.32;93.32;97801.34;5033090;28;20454;-79
2022/12/21 08:48:00;;;;;;;25.00;19.70;;;6.60;99.90;;;6.27;93.60;97793.03;5031806;28;20477;-79
2022/12/21 08:50:27;;;;;;;21.40;18.17;;;6.60;99.90;;;6.43;92.89;97806.19;5033390;28;20466;-81
2022/12/21 08:52:56;;;;;;;25.77;19.50;;;6.70;99.90;;;6.47;93.16;97804.78;5034879;28;20494;-78
2022/12/21 08:55:23;;;;;;;23.70;19.83;;;6.70;99.90;;;6.34;93.17;97802.81;5032855;28;20502;-79
2022/12/21 08:57:50;;;;;;;22.37;19.73;;;6.70;99.90;;;6.42;92.90;97804.53;5024386;28;20467;-80
2022/12/21 09:00:18;;;;;;;21.37;18.33;;;6.70;99.90;;;6.41;92.58;97789.44;5030076;28;20770;-80
2022/12/21 09:02:45;;;;;;;21.97;19.00;;;6.70;99.90;;;6.31;93.36;97802.38;5033201;28;20477;-76
2022/12/21 09:05:12;;;;;;;21.63;18.23;;;6.60;99.90;;;6.22;94.44;97815.91;5032483;28;20514;-79
2022/12/21 09:07:39;;;;;;;25.63;18.57;;;6.60;99.90;;;6.35;93.93;97812.50;5033266;28;20447;-79
2022/12/21 09:10:09;;;;;;;28.93;21.00;;;6.60;99.90;;;6.59;93.09;97806.91;5031899;28;20892;-78
2022/12/21 09:12:36;;;;;;;21.07;18.20;;;6.70;99.90;;;6.54;93.23;97801.31;5029228;28;20450;-80
2022/12/21 09:15:05;;;;;;;24.10;19.57;;;6.80;99.90;;;6.37;93.48;97804.28;5021942;28;20525;-76
2022/12/21 09:17:32;;;;;;;24.53;18.50;;;6.80;99.90;;;6.61;93.03;97797.66;5031007;28;20465;-80
2022/12/21 09:19:59;;;;;;;23.67;17.60;;;6.80;99.90;;;6.52;92.30;97796.13;5025294;28;20491;-79
2022/12/21 09:22:27;;;;;;;24.07;19.10;;;6.90;99.90;;;6.58;93.11;97805.25;5033096;28;20512;-80
2022/12/21 09:24:54;;;;;;;24.40;19.67;;;6.80;99.90;;;6.29;92.99;97761.47;5030040;28;20854;-78
2022/12/21 09:27:23;;;;;;;22.80;17.77;;;6.80;99.90;;;6.43;93.32;97813.41;5031803;28;20443;-78
2022/12/21 09:29:50;;;;;;;20.27;18.07;;;6.80;99.90;;;6.64;93.23;97799.13;5031329;28;20517;-80
2022/12/21 09:32:17;;;;;;;19.00;17.00;;;6.90;99.90;;;6.65;92.67;97801.59;5030702;28;20486;-79
2022/12/21 09:34:44;;;;;;;22.00;18.20;;;6.90;99.90;;;6.72;92.72;97807.00;5030228;28;20507;-77
2022/12/21 09:37:11;;;;;;;19.40;17.33;;;6.90;99.90;;;6.72;92.56;97801.66;5032451;28;20474;-79
2022/12/21 09:39:38;;;;;;;23.10;18.03;;;6.90;99.90;;;6.73;91.80;97797.94;5032596;28;20451;-78
2022/12/21 09:42:23;;;;;;;21.17;18.87;;;7.00;99.90;;;6.72;92.70;97792.78;5030875;28;20524;-81
2022/12/21 09:45:13;;;;;;;23.93;18.50;;;7.00;99.90;;;6.72;92.73;97784.72;5029927;28;20532;-79
2022/12/21 09:47:46;;;;;;;21.03;17.90;;;7.00;99.90;;;6.86;92.14;97785.63;5028479;28;20506;-80
2022/12/21 09:50:21;;;;;;;23.10;19.13;;;7.00;99.90;;;6.70;92.46;97792.16;5032093;28;21267;-83
2022/12/21 09:52:55;;;;;;;19.10;16.33;;;7.00;99.90;;;6.66;93.10;97791.69;5035342;28;20455;-79
2022/12/21 09:55:27;;;;;;;20.13;17.17;;;7.00;99.90;;;6.82;92.51;97795.13;5032526;28;20508;-78
2022/12/21 09:57:58;;;;;;;19.70;16.73;;;7.00;99.90;;;6.81;92.59;97791.59;5029759;28;20891;-79
2022/12/21 10:00:26;;;;;;;19.80;16.70;;;7.10;99.90;;;6.73;93.78;97789.88;5030163;28;20453;-75
2022/12/21 10:03:31;;;;;;;20.37;17.37;;;7.00;99.90;;;6.72;93.78;97795.47;5030384;28;20482;-80
2022/12/21 10:06:20;;;;;;;20.73;17.03;;;7.00;99.90;;;7.01;92.73;97778.28;4951657;28;20516;-78
2022/12/21 10:09:11;;;;;;;22.17;17.27;;;7.10;99.90;;;6.91;92.95;97788.56;5030329;28;20459;-81
2022/12/21 10:12:00;;;;;;;18.50;16.10;;;7.20;99.90;;;6.76;93.50;97781.47;5029422;28;20469;-78
2022/12/21 10:14:39;;;;;;;23.40;17.50;;;7.10;99.90;;;6.80;93.75;97785.41;5026371;28;20961;-79
2022/12/21 10:17:22;;;;;;;20.20;17.40;;;7.10;99.90;;;6.74;94.29;97778.09;5031382;28;20474;-81
2022/12/21 10:20:02;;;;;;;26.40;19.10;;;7.10;99.90;;;6.69;94.93;97777.88;5028932;28;20531;-78
2022/12/21 10:22:33;;;;;;;20.43;17.27;;;7.10;99.90;;;6.87;94.55;97781.91;5030422;28;20630;-80
2022/12/21 10:25:04;;;;;;;20.40;16.30;;;7.10;99.90;;;6.89;94.53;97782.53;5031634;28;20442;-79
2022/12/21 10:27:37;;;;;;;20.43;18.03;;;7.20;99.90;;;7.05;93.44;97767.97;5030630;28;20517;-81
2022/12/21 10:30:13;;;;;;;22.77;16.70;;;7.30;99.90;;;7.32;92.74;97776.97;5023578;28;20860;-79
2022/12/21 10:32:46;;;;;;;18.90;17.00;;;7.40;99.90;;;7.36;91.80;97770.19;5033644;28;20486;-80
2022/12/21 10:35:21;;;;;;;19.07;16.17;;;7.50;99.90;;;7.14;92.37;97771.31;5032150;28;20468;-80
2022/12/21 10:37:51;;;;;;;19.33;17.13;;;7.50;99.90;;;7.25;92.66;97770.75;5028874;28;20455;-80
2022/12/21 10:40:19;;;;;;;23.20;17.40;;;7.40;99.90;;;7.30;92.53;97770.16;5032543;28;20454;-80
2022/12/21 10:42:50;;;;;;;22.03;17.67;;;7.40;99.90;;;7.19;92.70;97768.84;5033462;28;20541;-78
2022/12/21 10:45:24;;;;;;;20.07;17.67;;;7.40;99.90;;;7.25;92.85;97762.69;5032255;28;20553;-81
2022/12/21 10:47:51;;;;;;;19.00;16.70;;;7.40;99.90;;;7.40;91.53;97764.41;5028334;28;20569;-82